Time;durP1;ratioP1;P1;durP2;ratioP2;P2;SDS_P1;SDS_P2;PMS_P1;PMS_P2;Temp;Humidity;BMP_temperature;BMP_pressure;BME280_temperature;BME280_humidity;BME280_pressure;Samples;Min_cycle;Max_cycle;Signal;HPM_P1;HPM_P2
2023/06/14 00:01:47;;;;;;;4.40;1.50;;;15.30;99.90;;;;;;5093905;27;20402;-89
2023/06/14 00:04:13;;;;;;;4.95;1.00;;;15.20;99.90;;;;;;5095325;27;20750;-89
2023/06/14 00:06:41;;;;;;;4.80;1.10;;;15.10;99.90;;;;;;5093441;27;20490;-90
2023/06/14 00:09:08;;;;;;;3.95;1.33;;;15.00;99.90;;;;;;5095493;27;20949;-90
2023/06/14 00:11:34;;;;;;;4.10;1.27;;;15.10;99.90;;;;;;5093873;27;20399;-90
2023/06/14 00:13:59;;;;;;;5.53;1.20;;;14.90;99.90;;;;;;5094779;27;20410;-89
2023/06/14 00:16:25;;;;;;;2.95;1.00;;;15.00;99.90;;;;;;5095477;27;20917;-89
2023/06/14 00:18:53;;;;;;;4.37;1.20;;;14.90;99.90;;;;;;5093189;27;20997;-90
2023/06/14 00:21:19;;;;;;;4.82;1.10;;;14.90;99.90;;;;;;5094753;27;20407;-89
2023/06/14 00:23:45;;;;;;;4.53;1.20;;;15.00;99.90;;;;;;5092950;27;20402;-89
2023/06/14 00:26:11;;;;;;;2.30;1.00;;;14.80;99.90;;;;;;5095020;27;20410;-90
2023/06/14 00:28:36;;;;;;;5.15;1.02;;;14.90;99.90;;;;;;5093139;27;20402;-89
2023/06/14 00:31:02;;;;;;;3.17;1.00;;;14.70;99.90;;;;;;5094598;27;20514;-89
2023/06/14 00:33:28;;;;;;;3.35;1.20;;;14.70;99.90;;;;;;5094483;27;20402;-89
2023/06/14 00:35:53;;;;;;;3.53;1.00;;;14.90;99.90;;;;;;5093590;27;20403;-89
2023/06/14 00:38:20;;;;;;;3.30;1.00;;;14.60;99.90;;;;;;5094866;27;20403;-89
2023/06/14 00:40:46;;;;;;;4.32;1.02;;;14.60;99.90;;;;;;5092233;27;20423;-89
2023/06/14 00:43:12;;;;;;;2.95;0.82;;;14.50;99.90;;;;;;5094539;27;21021;-90
2023/06/14 00:45:38;;;;;;;2.43;1.07;;;14.50;99.90;;;;;;5093117;27;20391;-90
2023/06/14 00:48:06;;;;;;;3.27;1.10;;;14.40;99.90;;;;;;5094590;27;20395;-90
2023/06/14 00:50:32;;;;;;;2.70;0.97;;;14.40;99.90;;;;;;5093760;27;20890;-89
2023/06/14 00:53:00;;;;;;;3.65;1.10;;;14.40;99.90;;;;;;5093078;27;20662;-90
2023/06/14 00:55:27;;;;;;;3.20;0.77;;;14.20;99.90;;;;;;5093955;27;20405;-89
2023/06/14 00:57:54;;;;;;;2.95;0.98;;;14.30;99.90;;;;;;5109436;27;21152;-90
2023/06/14 01:00:19;;;;;;;2.67;0.90;;;14.30;99.90;;;;;;5094141;27;20451;-89
2023/06/14 01:02:45;;;;;;;3.45;1.08;;;14.20;99.90;;;;;;5092246;27;20827;-90
2023/06/14 01:05:12;;;;;;;3.37;1.10;;;14.40;99.90;;;;;;5093257;27;21078;-89
2023/06/14 01:07:59;;;;;;;3.50;0.90;;;14.20;99.90;;;;;;5093110;27;20403;-91
2023/06/14 01:10:35;;;;;;;2.30;0.73;;;14.10;99.90;;;;;;5092772;27;20411;-90
2023/06/14 01:13:14;;;;;;;3.30;0.83;;;14.40;99.90;;;;;;5094454;27;20430;-91
2023/06/14 01:15:42;;;;;;;4.22;0.93;;;14.00;99.90;;;;;;5092006;27;20406;-89
2023/06/14 01:18:17;;;;;;;4.40;0.85;;;14.00;99.90;;;;;;5093962;27;20528;-90
2023/06/14 01:20:49;;;;;;;4.30;0.87;;;14.00;99.90;;;;;;5092814;27;20853;-89
2023/06/14 01:23:18;;;;;;;3.38;1.00;;;14.00;99.90;;;;;;5092659;27;20804;-90
2023/06/14 01:25:44;;;;;;;3.33;0.82;;;14.10;99.90;;;;;;5094004;27;20394;-90
2023/06/14 01:28:12;;;;;;;2.80;0.83;;;14.10;99.90;;;;;;5091797;27;20407;-89
2023/06/14 01:30:44;;;;;;;4.23;1.00;;;13.90;99.90;;;;;;5093537;27;20418;-89
2023/06/14 01:33:14;;;;;;;4.00;0.80;;;13.90;99.90;;;;;;5091812;27;20395;-90
2023/06/14 01:35:45;;;;;;;3.25;0.82;;;13.90;99.90;;;;;;5093230;27;20477;-89
2023/06/14 01:38:12;;;;;;;3.15;1.05;;;13.80;99.90;;;;;;5093080;27;20973;-89
2023/06/14 01:40:39;;;;;;;3.72;1.10;;;13.80;99.90;;;;;;5092256;27;20483;-90
2023/06/14 01:43:06;;;;;;;3.50;0.90;;;13.80;99.90;;;;;;5111098;27;20799;-90
2023/06/14 01:45:33;;;;;;;3.25;1.00;;;13.80;99.90;;;;;;5091977;27;20412;-89
2023/06/14 01:48:00;;;;;;;3.20;1.20;;;13.70;99.90;;;;;;5093544;27;20399;-90
2023/06/14 01:50:31;;;;;;;3.33;1.00;;;13.70;99.90;;;;;;5091574;27;21006;-89
2023/06/14 01:52:58;;;;;;;4.32;1.00;;;13.70;99.90;;;;;;5092612;27;20402;-90
2023/06/14 01:55:24;;;;;;;2.53;1.10;;;13.70;99.90;;;;;;5092856;27;20766;-89
2023/06/14 01:57:51;;;;;;;3.17;1.00;;;13.70;99.90;;;;;;5092171;27;20387;-90
2023/06/14 02:00:18;;;;;;;4.22;1.35;;;13.60;99.90;;;;;;5092951;27;20442;-90
2023/06/14 02:02:44;;;;;;;3.38;1.00;;;13.60;99.90;;;;;;5091146;27;20789;-90
2023/06/14 02:05:10;;;;;;;3.95;1.10;;;13.80;99.90;;;;;;5093626;28;20451;-89
2023/06/14 02:07:36;;;;;;;4.13;1.25;;;13.70;99.90;;;;;;5091587;27;20395;-89
2023/06/14 02:10:03;;;;;;;3.00;1.15;;;13.70;99.90;;;;;;5093327;28;20395;-90
2023/06/14 02:12:29;;;;;;;3.58;1.42;;;13.60;99.90;;;;;;5092338;28;20426;-89
2023/06/14 02:14:56;;;;;;;4.03;1.40;;;13.50;99.90;;;;;;5091409;28;20441;-90
2023/06/14 02:17:22;;;;;;;4.75;1.10;;;13.60;99.90;;;;;;5092975;27;20399;-89
2023/06/14 02:19:48;;;;;;;3.50;0.98;;;13.50;99.90;;;;;;5091120;28;20423;-90
2023/06/14 02:22:15;;;;;;;3.90;1.30;;;13.60;99.90;;;;;;5093047;28;20744;-90
2023/06/14 02:24:41;;;;;;;4.10;1.50;;;13.50;99.90;;;;;;5091065;28;20426;-90
2023/06/14 02:27:10;;;;;;;3.35;1.40;;;13.50;99.90;;;;;;5093413;28;20835;-89
2023/06/14 02:29:36;;;;;;;3.72;1.50;;;13.40;99.90;;;;;;5091356;27;20543;-90
2023/06/14 02:32:02;;;;;;;2.22;1.35;;;13.40;99.90;;;;;;5092141;28;20402;-89
2023/06/14 02:34:28;;;;;;;4.82;1.40;;;13.30;99.90;;;;;;5092479;28;20894;-89
2023/06/14 02:36:53;;;;;;;2.53;1.42;;;13.40;99.90;;;;;;5091647;28;20750;-88
2023/06/14 02:39:20;;;;;;;2.93;1.50;;;13.30;99.90;;;;;;5092649;28;20419;-90
2023/06/14 02:41:46;;;;;;;4.13;1.45;;;13.50;99.90;;;;;;5090831;28;20467;-90
2023/06/14 02:44:13;;;;;;;4.20;1.40;;;13.50;99.90;;;;;;5092696;28;20498;-89
2023/06/14 02:46:39;;;;;;;3.55;1.25;;;13.20;99.90;;;;;;5091156;28;20740;-89
2023/06/14 02:49:05;;;;;;;3.90;1.37;;;13.30;99.90;;;;;;5092380;28;20420;-90
2023/06/14 02:51:30;;;;;;;2.78;1.38;;;13.20;99.90;;;;;;5092586;28;20450;-90
2023/06/14 02:53:56;;;;;;;4.00;1.40;;;13.10;99.90;;;;;;5091073;28;20403;-89
2023/06/14 02:56:22;;;;;;;4.23;1.50;;;13.10;99.90;;;;;;5092557;28;20383;-89
2023/06/14 02:58:48;;;;;;;3.08;1.20;;;13.10;99.90;;;;;;5090737;28;20414;-89
2023/06/14 03:01:14;;;;;;;2.90;1.60;;;13.00;99.90;;;;;;5092230;28;20426;-90
2023/06/14 03:03:40;;;;;;;3.40;1.70;;;13.10;99.90;;;;;;5091005;28;21153;-89
2023/06/14 03:06:08;;;;;;;4.73;1.80;;;13.10;99.90;;;;;;5092486;28;20390;-89
2023/06/14 03:08:38;;;;;;;3.40;1.73;;;13.00;99.90;;;;;;5091249;28;20395;-89
2023/06/14 03:11:05;;;;;;;3.60;1.77;;;13.00;99.90;;;;;;5090837;28;20491;-89
2023/06/14 03:13:34;;;;;;;2.70;1.60;;;13.30;99.90;;;;;;5091955;28;20394;-88
2023/06/14 03:16:02;;;;;;;2.70;1.40;;;12.90;99.90;;;;;;5090683;28;20954;-90
2023/06/14 03:18:30;;;;;;;3.80;1.70;;;12.90;99.90;;;;;;5092261;28;20911;-89
2023/06/14 03:20:57;;;;;;;3.45;1.63;;;13.10;99.90;;;;;;5090313;28;20427;-89
2023/06/14 03:23:25;;;;;;;5.03;1.97;;;12.90;99.90;;;;;;5092060;28;20410;-89
2023/06/14 03:25:51;;;;;;;3.58;1.75;;;13.00;99.90;;;;;;5091416;28;20407;-88
2023/06/14 03:28:17;;;;;;;2.67;1.70;;;12.90;99.90;;;;;;5093776;27;20429;-89
2023/06/14 03:30:42;;;;;;;3.65;2.05;;;12.80;99.90;;;;;;5095494;27;20758;-89
2023/06/14 03:33:09;;;;;;;5.50;2.00;;;12.80;99.90;;;;;;5094065;27;20438;-89
2023/06/14 03:35:34;;;;;;;4.10;1.70;;;12.80;99.90;;;;;;5095903;27;20747;-88
2023/06/14 03:38:00;;;;;;;4.75;2.40;;;12.80;99.90;;;;;;5093836;27;20531;-90
2023/06/14 03:40:26;;;;;;;3.97;2.30;;;12.80;99.90;;;;;;5112421;27;20418;-89
2023/06/14 03:42:53;;;;;;;3.63;1.92;;;13.00;99.90;;;;;;5093891;27;20413;-89
2023/06/14 03:45:19;;;;;;;4.73;1.63;;;12.70;99.90;;;;;;5094755;27;20406;-89
2023/06/14 03:47:45;;;;;;;4.75;2.22;;;12.80;99.90;;;;;;5095501;27;20836;-89
2023/06/14 03:50:11;;;;;;;5.00;2.05;;;12.80;99.90;;;;;;5093730;27;20391;-89
2023/06/14 03:52:36;;;;;;;4.63;2.00;;;12.80;99.90;;;;;;5095403;27;20394;-89
2023/06/14 03:55:02;;;;;;;3.23;1.90;;;12.80;99.90;;;;;;5093474;27;20402;-90
2023/06/14 03:57:30;;;;;;;3.42;2.20;;;12.80;99.90;;;;;;5095020;27;20755;-89
2023/06/14 03:59:55;;;;;;;4.90;2.17;;;13.00;99.90;;;;;;5093647;27;20441;-88
2023/06/14 04:02:22;;;;;;;3.38;2.10;;;12.90;99.90;;;;;;5095018;27;20399;-89
2023/06/14 04:04:48;;;;;;;4.47;2.55;;;12.90;99.90;;;;;;5094676;27;20403;-88
2023/06/14 04:07:15;;;;;;;4.40;2.57;;;13.00;99.90;;;;;;5093734;27;20415;-90
2023/06/14 04:09:41;;;;;;;4.18;2.55;;;13.00;99.90;;;;;;5095004;27;20413;-88
2023/06/14 04:12:08;;;;;;;2.85;2.10;;;13.10;99.90;;;;;;5092796;27;20395;-90
2023/06/14 04:14:34;;;;;;;3.83;2.10;;;13.10;99.90;;;;;;5094804;27;20440;-88
2023/06/14 04:17:00;;;;;;;4.27;2.23;;;13.40;99.90;;;;;;5092830;27;20391;-89
2023/06/14 04:19:26;;;;;;;4.23;2.37;;;13.30;99.90;;;;;;5094394;27;20925;-89
2023/06/14 04:21:52;;;;;;;4.85;2.47;;;13.40;99.90;;;;;;5093349;27;20410;-89
2023/06/14 04:24:17;;;;;;;4.53;2.30;;;13.50;99.90;;;;;;5093795;27;20395;-90
2023/06/14 04:26:47;;;;;;;4.50;1.90;;;13.60;99.90;;;;;;5094651;27;20395;-89
2023/06/14 04:29:15;;;;;;;4.75;2.30;;;13.90;99.90;;;;;;5092688;27;20407;-89
2023/06/14 04:31:42;;;;;;;4.00;2.38;;;13.80;99.90;;;;;;5094389;27;20741;-88
2023/06/14 04:34:08;;;;;;;4.70;2.20;;;13.90;99.90;;;;;;5092320;27;20387;-88
2023/06/14 04:36:36;;;;;;;3.63;2.00;;;14.00;99.90;;;;;;5094241;27;20474;-90
2023/06/14 04:39:03;;;;;;;5.07;2.20;;;14.20;99.90;;;;;;5093016;27;20441;-89
2023/06/14 04:41:32;;;;;;;5.10;2.47;;;14.30;99.90;;;;;;5093374;27;20517;-89
2023/06/14 04:44:01;;;;;;;4.40;1.73;;;14.40;99.90;;;;;;5093837;27;20454;-89
2023/06/14 04:46:31;;;;;;;6.20;2.30;;;14.60;99.90;;;;;;5092383;27;20407;-88
2023/06/14 04:49:02;;;;;;;4.40;1.73;;;14.90;99.90;;;;;;5093826;27;20402;-89
2023/06/14 04:51:33;;;;;;;4.13;2.03;;;14.90;99.90;;;;;;5092014;27;20428;-88
2023/06/14 04:53:59;;;;;;;4.55;1.95;;;15.00;99.90;;;;;;5110676;27;20407;-89
2023/06/14 04:56:25;;;;;;;4.17;1.97;;;15.30;99.90;;;;;;5093234;27;20414;-89
2023/06/14 04:58:52;;;;;;;5.22;2.05;;;15.40;99.90;;;;;;5093212;27;20393;-89
2023/06/14 05:01:18;;;;;;;5.93;2.13;;;15.50;99.90;;;;;;5110595;27;20430;-88
2023/06/14 05:03:45;;;;;;;3.28;2.22;;;15.70;99.90;;;;;;5091657;27;20436;-89
2023/06/14 05:06:11;;;;;;;3.53;1.90;;;16.10;99.90;;;;;;5110567;27;20395;-89
2023/06/14 05:08:37;;;;;;;3.72;2.28;;;16.00;99.90;;;;;;5091569;27;20452;-89
2023/06/14 05:11:03;;;;;;;4.50;2.15;;;16.20;99.90;;;;;;5094008;27;20785;-90
2023/06/14 05:13:28;;;;;;;3.30;2.00;;;16.30;99.90;;;;;;5092488;27;20394;-88
2023/06/14 05:15:54;;;;;;;4.97;2.00;;;16.40;99.90;;;;;;5092669;27;20406;-87
2023/06/14 05:18:20;;;;;;;2.73;1.73;;;16.60;99.90;;;;;;5093137;27;20402;-88
2023/06/14 05:20:46;;;;;;;4.32;2.30;;;16.70;99.90;;;;;;5108200;27;20833;-89
2023/06/14 05:23:14;;;;;;;5.90;2.10;;;16.80;99.90;;;;;;5092781;27;20409;-88
2023/06/14 05:25:43;;;;;;;4.78;2.13;;;16.90;99.90;;;;;;5108249;27;20399;-89
2023/06/14 05:28:08;;;;;;;3.33;2.10;;;17.10;99.90;;;;;;5093380;27;20391;-89
2023/06/14 05:30:34;;;;;;;2.83;1.85;;;17.40;99.90;;;;;;5108577;27;20410;-88
2023/06/14 05:33:00;;;;;;;4.50;1.90;;;17.50;99.90;;;;;;5092447;27;20407;-88
2023/06/14 05:35:26;;;;;;;3.97;2.00;;;17.80;99.90;;;;;;5092604;27;20485;-89
2023/06/14 05:37:53;;;;;;;4.32;2.22;;;17.60;99.90;;;;;;5091479;27;20482;-90
2023/06/14 05:40:19;;;;;;;3.80;2.00;;;17.80;99.90;;;;;;5092875;27;20463;-88
2023/06/14 05:42:45;;;;;;;4.53;2.38;;;17.90;99.90;;;;;;5090952;27;20395;-88
2023/06/14 05:45:11;;;;;;;5.55;2.08;;;18.00;99.90;;;;;;5093015;27;20809;-89
2023/06/14 05:47:37;;;;;;;3.75;1.83;;;18.00;99.90;;;;;;5091002;27;20402;-89
2023/06/14 05:50:03;;;;;;;5.33;1.93;;;18.10;99.90;;;;;;5092041;27;20743;-88
2023/06/14 05:52:29;;;;;;;5.82;2.30;;;18.10;99.90;;;;;;5108596;27;20399;-87
2023/06/14 05:54:55;;;;;;;5.22;2.15;;;18.20;99.90;;;;;;5091350;27;20410;-88
2023/06/14 05:57:20;;;;;;;4.13;2.05;;;18.20;99.90;;;;;;5092493;27;20786;-88
2023/06/14 05:59:46;;;;;;;3.73;2.23;;;18.40;99.90;;;;;;5090420;27;20426;-89
2023/06/14 06:02:12;;;;;;;4.50;1.98;;;18.50;99.90;;;;;;5109910;27;20587;-89
2023/06/14 06:04:37;;;;;;;4.90;2.03;;;18.60;99.90;;;;;;5090378;27;20399;-90
2023/06/14 06:07:03;;;;;;;5.93;2.03;;;18.80;99.90;;;;;;5092292;27;20448;-88
2023/06/14 06:09:29;;;;;;;5.15;2.30;;;18.80;99.90;;;;;;5107443;28;20514;-90
2023/06/14 06:11:55;;;;;;;6.18;2.28;;;18.90;99.90;;;;;;5091604;27;20991;-88
2023/06/14 06:14:21;;;;;;;5.18;1.90;;;18.90;99.90;;;;;;5092263;27;20407;-88
2023/06/14 06:16:46;;;;;;;4.00;1.80;;;19.10;99.90;;;;;;5107500;27;20399;-90
2023/06/14 06:19:12;;;;;;;4.43;1.80;;;19.20;99.90;;;;;;5091963;28;20427;-89
2023/06/14 06:21:38;;;;;;;4.60;2.10;;;19.30;99.90;;;;;;5090133;28;20391;-90
2023/06/14 06:24:05;;;;;;;3.42;2.10;;;19.40;99.90;;;;;;5092531;28;20446;-90
2023/06/14 06:26:32;;;;;;;4.90;2.10;;;19.50;99.90;;;;;;5090934;28;20402;-89
2023/06/14 06:28:59;;;;;;;4.40;1.75;;;19.50;99.90;;;;;;5091784;28;20724;-88
2023/06/14 06:31:25;;;;;;;3.53;2.00;;;19.60;98.60;;;;;;5091578;28;20415;-89
2023/06/14 06:33:51;;;;;;;3.25;1.90;;;19.70;99.40;;;;;;5090737;28;20414;-90
2023/06/14 06:36:16;;;;;;;3.92;1.92;;;19.90;98.40;;;;;;5092092;28;20391;-88
2023/06/14 06:38:42;;;;;;;3.93;1.70;;;20.00;99.60;;;;;;5090248;28;20411;-89
2023/06/14 06:41:08;;;;;;;4.97;1.83;;;20.00;98.00;;;;;;5091884;28;20919;-88
2023/06/14 06:43:33;;;;;;;3.70;1.70;;;20.00;99.30;;;;;;5090335;28;20395;-88
2023/06/14 06:45:59;;;;;;;4.70;1.87;;;20.40;98.50;;;;;;5092207;28;20398;-88
2023/06/14 06:48:24;;;;;;;3.95;1.60;;;20.40;98.00;;;;;;5090685;28;20501;-89
2023/06/14 06:50:51;;;;;;;4.13;1.63;;;20.40;95.60;;;;;;5108195;28;20762;-89
2023/06/14 06:53:18;;;;;;;4.38;1.80;;;20.40;97.70;;;;;;5108403;28;20478;-88
2023/06/14 06:55:44;;;;;;;4.70;1.70;;;20.50;94.60;;;;;;5107282;28;20909;-90
2023/06/14 06:58:09;;;;;;;3.28;1.60;;;20.50;95.70;;;;;;5091995;28;20394;-89
2023/06/14 07:00:35;;;;;;;3.23;1.50;;;20.80;95.10;;;;;;5089677;28;20425;-89
2023/06/14 07:03:01;;;;;;;3.28;1.45;;;20.80;95.80;;;;;;5094283;27;20410;-89
2023/06/14 07:05:27;;;;;;;4.30;1.33;;;21.00;95.00;;;;;;5094396;27;20422;-88
2023/06/14 07:07:52;;;;;;;4.63;1.50;;;21.00;95.40;;;;;;5095470;27;20397;-90
2023/06/14 07:10:18;;;;;;;3.30;1.50;;;21.20;92.30;;;;;;5095712;27;20956;-89
2023/06/14 07:12:44;;;;;;;3.22;1.38;;;21.40;88.40;;;;;;5094580;27;20409;-89
2023/06/14 07:15:11;;;;;;;4.00;1.38;;;21.20;89.20;;;;;;5112449;27;20402;-89
2023/06/14 07:17:37;;;;;;;3.63;1.30;;;21.30;89.00;;;;;;5093920;27;20822;-89
2023/06/14 07:20:07;;;;;;;2.60;1.20;;;21.20;86.80;;;;;;5112296;27;20457;-89
2023/06/14 07:22:33;;;;;;;4.90;1.30;;;21.50;84.50;;;;;;5093742;27;20602;-88
2023/06/14 07:24:58;;;;;;;3.33;1.33;;;21.70;82.80;;;;;;5095381;27;20485;-88
2023/06/14 07:27:24;;;;;;;2.70;1.10;;;21.70;75.20;;;;;;5094410;27;20406;-89
2023/06/14 07:29:49;;;;;;;1.87;1.00;;;21.90;75.70;;;;;;5094050;27;20929;-88
2023/06/14 07:32:15;;;;;;;4.35;1.00;;;22.10;66.90;;;;;;5094921;27;20800;-89
2023/06/14 07:34:40;;;;;;;4.50;1.20;;;22.00;70.70;;;;;;5110316;27;20395;-88
2023/06/14 07:37:06;;;;;;;3.43;1.40;;;21.90;69.10;;;;;;5095364;27;20463;-89
2023/06/14 07:39:32;;;;;;;4.32;1.00;;;22.30;67.30;;;;;;5092849;27;20858;-90
2023/06/14 07:41:57;;;;;;;2.27;1.23;;;22.30;68.00;;;;;;5095422;27;20464;-87
2023/06/14 07:44:23;;;;;;;3.33;0.90;;;22.10;65.00;;;;;;5093591;27;20912;-87
2023/06/14 07:46:51;;;;;;;3.33;0.93;;;22.40;67.80;;;;;;5111333;27;20982;-90
2023/06/14 07:49:17;;;;;;;2.95;1.15;;;22.30;65.10;;;;;;5094557;27;20489;-87
2023/06/14 07:51:44;;;;;;;3.37;1.10;;;22.30;62.00;;;;;;5092790;27;21009;-88
2023/06/14 07:54:10;;;;;;;3.63;1.00;;;22.50;62.40;;;;;;5112303;27;20807;-89
2023/06/14 07:56:36;;;;;;;2.90;1.20;;;22.40;65.10;;;;;;5093184;27;20387;-89
2023/06/14 07:59:01;;;;;;;3.90;1.23;;;22.40;64.70;;;;;;5094721;27;20958;-90
2023/06/14 08:01:28;;;;;;;3.35;1.20;;;22.70;61.00;;;;;;5128488;27;20467;-88
2023/06/14 08:03:53;;;;;;;3.80;1.10;;;22.40;62.20;;;;;;5094089;27;20781;-88
2023/06/14 08:06:19;;;;;;;5.37;1.20;;;22.50;59.10;;;;;;5093858;27;20479;-90
2023/06/14 08:08:45;;;;;;;3.33;1.15;;;22.60;61.90;;;;;;5093027;27;20405;-89
2023/06/14 08:11:10;;;;;;;5.07;1.20;;;22.60;60.30;;;;;;5111479;27;20406;-88
2023/06/14 08:13:36;;;;;;;2.63;1.10;;;22.70;59.80;;;;;;5092233;27;20429;-91
2023/06/14 08:16:04;;;;;;;3.10;1.20;;;23.00;60.10;;;;;;5094346;27;20467;-90
2023/06/14 08:18:30;;;;;;;2.25;0.80;;;23.00;55.70;;;;;;5109709;27;20993;-90
2023/06/14 08:20:57;;;;;;;4.00;1.07;;;23.00;56.50;;;;;;5093853;27;20509;-89
2023/06/14 08:23:23;;;;;;;3.00;1.27;;;23.10;57.90;;;;;;5093440;27;20649;-89
2023/06/14 08:25:49;;;;;;;3.95;1.15;;;23.00;55.90;;;;;;5110413;27;20454;-89
2023/06/14 08:28:15;;;;;;;3.08;1.38;;;23.20;57.10;;;;;;5094006;27;20433;-89
2023/06/14 08:30:42;;;;;;;3.57;1.10;;;23.40;60.10;;;;;;5109121;27;20435;-87
2023/06/14 08:33:08;;;;;;;2.50;1.23;;;23.60;63.00;;;;;;5094065;27;20395;-90
2023/06/14 08:35:36;;;;;;;2.55;1.10;;;23.50;60.20;;;;;;5092491;27;20933;-90
2023/06/14 08:38:03;;;;;;;2.72;1.20;;;23.60;61.50;;;;;;5093878;27;20513;-89
2023/06/14 08:40:30;;;;;;;4.18;1.23;;;23.90;59.50;;;;;;5092661;27;20918;-88
2023/06/14 08:42:56;;;;;;;4.63;1.48;;;23.90;55.50;;;;;;5110609;27;20775;-88
2023/06/14 08:45:23;;;;;;;2.50;1.20;;;23.90;55.90;;;;;;5110943;27;20763;-86
2023/06/14 08:47:57;;;;;;;4.55;1.13;;;23.90;60.10;;;;;;5108993;27;20475;-89
2023/06/14 08:50:29;;;;;;;5.82;0.90;;;24.00;56.60;;;;;;5110930;27;20553;-89
2023/06/14 08:53:00;;;;;;;4.28;1.00;;;24.10;54.80;;;;;;5091483;27;20406;-87
2023/06/14 08:55:27;;;;;;;3.10;1.10;;;24.20;54.60;;;;;;5110516;27;20477;-90
2023/06/14 08:57:59;;;;;;;3.55;1.00;;;24.30;57.10;;;;;;5092248;27;20394;-90
2023/06/14 09:00:26;;;;;;;2.77;1.00;;;24.50;58.60;;;;;;5091523;27;20477;-89
2023/06/14 09:02:58;;;;;;;6.40;1.15;;;24.60;51.80;;;;;;5093630;27;20502;-88
2023/06/14 09:05:28;;;;;;;3.97;1.10;;;24.60;56.10;;;;;;5091553;27;20406;-89
2023/06/14 09:07:55;;;;;;;3.55;1.00;;;24.60;51.30;;;;;;5093686;27;20802;-89
2023/06/14 09:10:21;;;;;;;3.03;0.93;;;24.80;52.50;;;;;;5091774;27;20390;-91
2023/06/14 09:12:47;;;;;;;4.03;1.00;;;24.80;51.40;;;;;;5093011;27;20843;-89
2023/06/14 09:15:14;;;;;;;4.72;1.10;;;24.70;51.40;;;;;;5109564;27;20417;-90
2023/06/14 09:17:40;;;;;;;3.55;1.10;;;24.80;50.70;;;;;;5108746;27;20438;-91
2023/06/14 09:20:10;;;;;;;3.00;0.73;;;24.90;50.70;;;;;;5092614;27;20425;-91
2023/06/14 09:22:39;;;;;;;3.50;1.10;;;25.10;49.40;;;;;;5108305;27;20578;-89
2023/06/14 09:25:06;;;;;;;3.38;1.08;;;25.10;48.40;;;;;;5092334;27;20399;-91
2023/06/14 09:27:32;;;;;;;3.15;0.90;;;25.10;52.00;;;;;;5126629;27;20405;-90
2023/06/14 09:29:58;;;;;;;5.25;0.90;;;25.20;49.70;;;;;;5109709;27;20399;-90
2023/06/14 09:32:25;;;;;;;5.53;0.90;;;25.20;49.00;;;;;;5108757;27;20666;-89
2023/06/14 09:34:51;;;;;;;4.45;0.90;;;25.40;49.00;;;;;;5109423;27;20918;-91
2023/06/14 09:37:30;;;;;;;3.30;1.00;;;25.60;48.00;;;;;;5092613;27;20429;-90
2023/06/14 09:39:56;;;;;;;2.90;0.80;;;25.60;47.60;;;;;;5107727;27;20519;-89
2023/06/14 09:42:25;;;;;;;6.32;1.02;;;25.90;48.20;;;;;;5093216;27;20391;-90
2023/06/14 09:44:53;;;;;;;2.95;1.10;;;26.00;46.90;;;;;;5107930;27;20405;-89
2023/06/14 09:47:19;;;;;;;2.25;0.90;;;26.00;46.40;;;;;;5109685;27;20758;-90
2023/06/14 09:49:45;;;;;;;3.38;0.90;;;26.20;48.20;;;;;;5091801;27;20403;-90
2023/06/14 09:52:15;;;;;;;4.40;1.10;;;26.00;44.70;;;;;;5108745;27;20413;-90
2023/06/14 09:54:42;;;;;;;2.67;0.80;;;26.00;44.60;;;;;;5109304;27;20394;-89
2023/06/14 09:57:11;;;;;;;1.98;0.70;;;26.00;46.00;;;;;;5090836;27;20398;-91
2023/06/14 09:59:47;;;;;;;2.97;0.80;;;26.00;45.00;;;;;;5092329;27;20578;-91
2023/06/14 10:02:26;;;;;;;4.88;0.90;;;26.00;45.30;;;;;;5091299;27;20409;-90
2023/06/14 10:05:11;;;;;;;4.15;0.80;;;26.10;45.40;;;;;;5091923;27;20395;-92
2023/06/14 10:07:59;;;;;;;2.72;0.60;;;26.20;44.30;;;;;;5092375;27;20432;-90
2023/06/14 10:10:25;;;;;;;3.03;0.90;;;26.50;45.70;;;;;;5107726;27;20897;-90
2023/06/14 10:12:51;;;;;;;3.20;0.90;;;26.50;43.90;;;;;;5092291;27;20411;-89
2023/06/14 10:15:46;;;;;;;2.58;0.82;;;26.80;45.20;;;;;;5091003;27;20399;-89
2023/06/14 10:18:28;;;;;;;3.53;1.38;;;27.10;43.60;;;;;;5071377;27;20925;-86
2023/06/14 10:21:16;;;;;;;3.20;1.00;;;27.40;43.20;;;;;;5109237;28;20446;-89
2023/06/14 10:23:44;;;;;;;3.67;0.90;;;27.50;42.70;;;;;;5107363;28;20452;-87
2023/06/14 10:26:23;;;;;;;3.70;0.82;;;27.90;43.70;;;;;;5091653;28;20898;-88
2023/06/14 10:29:15;;;;;;;2.38;0.90;;;27.90;43.60;;;;;;5091750;28;20441;-88
2023/06/14 10:31:46;;;;;;;2.33;0.95;;;27.90;41.00;;;;;;5064065;28;20814;-89
2023/06/14 10:34:23;;;;;;;3.60;0.83;;;28.00;40.60;;;;;;5068487;28;20417;-90
2023/06/14 10:37:03;;;;;;;3.70;0.90;;;28.20;39.80;;;;;;5086521;28;20405;-89
2023/06/14 10:39:30;;;;;;;2.92;0.90;;;28.20;40.10;;;;;;5071613;28;20441;-88
2023/06/14 10:41:57;;;;;;;2.45;0.82;;;28.50;40.40;;;;;;5072518;28;20451;-87
2023/06/14 10:44:22;;;;;;;2.67;0.90;;;28.80;39.80;;;;;;5071406;28;20788;-88
2023/06/14 10:46:49;;;;;;;4.93;0.90;;;29.10;39.90;;;;;;5072716;28;20409;-88
2023/06/14 10:49:40;;;;;;;3.22;1.02;;;29.20;38.70;;;;;;5070430;28;20410;-87
2023/06/14 10:52:11;;;;;;;3.90;0.60;;;29.60;39.60;;;;;;5061365;28;20996;-87
2023/06/14 10:54:37;;;;;;;1.50;0.77;;;29.70;37.80;;;;;;5072426;28;20409;-88
2023/06/14 10:57:07;;;;;;;2.53;0.80;;;29.90;36.50;;;;;;5070776;28;20394;-89
2023/06/14 10:59:33;;;;;;;3.05;0.80;;;29.80;37.00;;;;;;5089200;28;20530;-88
2023/06/14 11:02:34;;;;;;;3.60;0.80;;;29.80;37.60;;;;;;5070781;28;20430;-89
2023/06/14 11:05:05;;;;;;;2.10;0.70;;;29.90;36.50;;;;;;5088770;28;20406;-89
2023/06/14 11:07:52;;;;;;;4.15;0.80;;;30.20;36.10;;;;;;5072079;28;20762;-88
2023/06/14 11:10:36;;;;;;;2.80;1.10;;;30.40;35.00;;;;;;5070736;28;20414;-88
2023/06/14 11:13:02;;;;;;;2.53;1.08;;;30.40;34.90;;;;;;5072271;28;20412;-88
2023/06/14 11:15:35;;;;;;;2.95;0.80;;;30.50;36.70;;;;;;5070721;28;20406;-88
2023/06/14 11:18:02;;;;;;;3.20;0.77;;;30.70;36.00;;;;;;5088182;28;20402;-90
2023/06/14 11:20:31;;;;;;;1.98;0.68;;;30.80;35.60;;;;;;5071356;28;20425;-89
2023/06/14 11:22:57;;;;;;;2.92;0.90;;;30.90;35.70;;;;;;5070175;28;20409;-91
2023/06/14 11:25:23;;;;;;;3.33;0.90;;;31.00;35.50;;;;;;5088614;28;20395;-89
2023/06/14 11:27:50;;;;;;;4.40;0.90;;;31.00;35.00;;;;;;5070375;28;20908;-88
2023/06/14 11:30:16;;;;;;;4.07;0.93;;;31.10;34.20;;;;;;5097100;28;20441;-88
2023/06/14 11:32:42;;;;;;;3.17;0.97;;;31.20;35.10;;;;;;5090042;28;20388;-89
2023/06/14 11:35:09;;;;;;;3.38;0.90;;;31.20;34.80;;;;;;5108927;28;20401;-88
2023/06/14 11:37:39;;;;;;;5.13;0.82;;;31.30;34.40;;;;;;5108116;28;20392;-89
2023/06/14 11:40:10;;;;;;;3.25;0.77;;;31.60;34.00;;;;;;5090421;28;20432;-87
2023/06/14 11:42:37;;;;;;;3.38;0.70;;;31.60;35.30;;;;;;5092077;28;20742;-89
2023/06/14 11:45:05;;;;;;;2.77;0.90;;;31.80;35.00;;;;;;5090496;28;20994;-88
2023/06/14 11:47:38;;;;;;;1.60;0.75;;;31.80;33.20;;;;;;5090940;28;20892;-89
2023/06/14 11:50:06;;;;;;;2.50;0.70;;;32.00;34.10;;;;;;5090092;28;20434;-90
2023/06/14 11:52:32;;;;;;;3.03;0.63;;;32.10;34.40;;;;;;5091506;28;20873;-89
2023/06/14 11:54:58;;;;;;;2.33;0.73;;;32.20;33.20;;;;;;5091183;28;20393;-88
2023/06/14 11:57:25;;;;;;;3.30;0.70;;;32.10;32.70;;;;;;5107003;28;20465;-87
2023/06/14 11:59:51;;;;;;;4.70;0.65;;;31.90;33.40;;;;;;5108176;28;20428;-85
2023/06/14 12:02:18;;;;;;;2.10;0.75;;;32.10;34.80;;;;;;5106844;28;20764;-90
2023/06/14 12:04:46;;;;;;;4.82;0.70;;;32.60;32.50;;;;;;5091310;28;20400;-89
2023/06/14 12:07:17;;;;;;;4.82;0.90;;;32.60;33.30;;;;;;5106795;28;20764;-87
2023/06/14 12:10:07;;;;;;;3.80;0.70;;;32.90;33.20;;;;;;5108481;28;20404;-89
2023/06/14 12:12:36;;;;;;;3.78;0.77;;;33.10;32.50;;;;;;5108115;28;20404;-88
2023/06/14 12:15:05;;;;;;;4.88;0.90;;;32.90;31.40;;;;;;5106295;28;20424;-88
2023/06/14 12:17:36;;;;;;;1.48;0.55;;;32.50;30.80;;;;;;5091309;28;20401;-89
2023/06/14 12:20:16;;;;;;;2.87;0.67;;;32.10;32.20;;;;;;5089195;28;20428;-88
2023/06/14 12:22:56;;;;;;;3.13;0.50;;;31.80;32.80;;;;;;5107638;28;20404;-87
2023/06/14 12:25:36;;;;;;;2.97;0.57;;;31.40;31.30;;;;;;5090674;28;20444;-89
2023/06/14 12:28:09;;;;;;;6.43;0.90;;;31.10;33.70;;;;;;5089105;28;20484;-91
2023/06/14 12:30:38;;;;;;;2.38;0.50;;;31.50;35.30;;;;;;5091002;28;20412;-88
2023/06/14 12:33:04;;;;;;;2.67;0.65;;;31.90;34.10;;;;;;5089000;28;20401;-88
2023/06/14 12:35:30;;;;;;;2.28;0.60;;;31.90;32.70;;;;;;5090636;28;20468;-87
2023/06/14 12:37:56;;;;;;;2.60;0.47;;;32.00;33.70;;;;;;5106739;28;20413;-89
2023/06/14 12:40:22;;;;;;;2.05;0.60;;;32.30;32.80;;;;;;5090034;28;20436;-90
2023/06/14 12:42:47;;;;;;;2.13;0.40;;;32.50;32.60;;;;;;5090250;28;20869;-89
2023/06/14 12:45:13;;;;;;;2.13;0.47;;;32.40;32.40;;;;;;5089046;28;20401;-89
2023/06/14 12:47:39;;;;;;;3.67;0.40;;;32.70;34.50;;;;;;5107889;28;20436;-91
2023/06/14 12:50:06;;;;;;;1.50;0.50;;;33.00;32.10;;;;;;5088736;28;20440;-89
2023/06/14 12:52:31;;;;;;;2.20;0.50;;;33.40;30.70;;;;;;5107274;28;20440;-87